createdAt,value
2018-07-11T00:00:55.920Z,95.60
2018-07-11T00:03:42.658Z,96.20
2018-07-11T00:06:12.615Z,96.70
2018-07-11T00:08:42.210Z,97.00
2018-07-11T00:11:12.495Z,97.40
2018-07-11T00:13:43.608Z,97.40
2018-07-11T00:16:13.942Z,97.50
2018-07-11T00:18:44.212Z,97.70
2018-07-11T00:21:13.877Z,97.10
2018-07-11T00:23:43.614Z,96.60
2018-07-11T00:26:13.231Z,96.70
2018-07-11T00:28:43.215Z,96.40
2018-07-11T00:31:12.854Z,96.70
2018-07-11T00:33:43.767Z,97.10
2018-07-11T00:36:13.476Z,97.20
2018-07-11T00:38:43.967Z,96.90
2018-07-11T00:41:13.711Z,96.60
2018-07-11T00:43:43.366Z,96.20
2018-07-11T00:46:13.613Z,95.90
2018-07-11T00:48:44.254Z,95.80
2018-07-11T00:51:13.993Z,95.90
2018-07-11T00:53:43.842Z,95.90
2018-07-11T00:56:13.494Z,96.00
2018-07-11T00:59:09.421Z,96.10
2018-07-11T01:01:42.073Z,96.10
2018-07-11T01:04:11.761Z,95.80
2018-07-11T01:06:43.385Z,96.10
2018-07-11T01:09:13.102Z,96.20
2018-07-11T01:11:44.303Z,95.80
2018-07-11T01:14:14.581Z,95.70
2018-07-11T01:16:44.239Z,95.80
2018-07-11T01:19:14.383Z,95.80
2018-07-11T01:21:45.895Z,96.00
2018-07-11T01:24:15.634Z,96.10
2018-07-11T01:26:45.471Z,96.00
2018-07-11T01:29:15.072Z,96.00
2018-07-11T01:31:44.736Z,95.90
2018-07-11T01:36:44.548Z,96.00
2018-07-11T01:39:14.178Z,96.10
2018-07-11T01:41:44.238Z,96.00
2018-07-11T01:44:13.831Z,95.90
2018-07-11T01:46:49.432Z,96.10
2018-07-11T01:49:19.131Z,96.40
2018-07-11T01:52:05.338Z,96.40
2018-07-11T01:54:35.240Z,96.50
2018-07-11T01:57:04.929Z,96.70
2018-07-11T01:59:37.213Z,96.90
2018-07-11T02:02:07.004Z,96.80
2018-07-11T02:04:40.378Z,96.70
2018-07-11T02:07:11.119Z,96.80
2018-07-11T02:09:43.171Z,96.40
2018-07-11T02:12:12.898Z,96.50
2018-07-11T02:14:47.061Z,96.70
2018-07-11T02:17:16.751Z,96.60
2018-07-11T02:19:46.397Z,96.40
2018-07-11T02:22:16.063Z,96.30
2018-07-11T02:24:46.443Z,96.70
2018-07-11T02:27:16.141Z,97.10
2018-07-11T02:29:46.579Z,97.60
2018-07-11T02:32:16.274Z,97.80
2018-07-11T02:34:45.948Z,98.20
2018-07-11T02:37:15.577Z,98.20
2018-07-11T02:39:45.633Z,97.80
2018-07-11T02:42:15.306Z,97.50
2018-07-11T02:44:45.145Z,97.50
2018-07-11T02:47:19.756Z,97.80
2018-07-11T02:49:49.635Z,98.00
2018-07-11T02:52:19.281Z,98.10
2018-07-11T02:54:48.914Z,97.60
2018-07-11T02:57:18.718Z,97.40
2018-07-11T02:59:49.420Z,97.50
2018-07-11T03:02:19.075Z,97.60
2018-07-11T03:04:48.756Z,97.60
2018-07-11T03:07:18.432Z,97.50
2018-07-11T03:09:48.055Z,97.50
2018-07-11T03:12:18.904Z,97.70
2018-07-11T03:14:51.598Z,97.80
2018-07-11T03:17:30.867Z,97.60
2018-07-11T03:22:31.470Z,97.70
2018-07-11T03:25:01.148Z,98.10
2018-07-11T03:27:31.668Z,98.20
2018-07-11T03:30:01.429Z,98.50
2018-07-11T03:32:31.073Z,98.50
2018-07-11T03:35:00.813Z,98.40
2018-07-11T03:37:30.532Z,98.40
2018-07-11T03:40:00.219Z,98.40
2018-07-11T03:42:29.964Z,98.40
2018-07-11T03:44:59.660Z,98.50
2018-07-11T03:47:29.335Z,98.60
2018-07-11T03:49:59.058Z,98.70
2018-07-11T03:52:28.701Z,98.50
2018-07-11T03:54:58.411Z,98.00
2018-07-11T03:57:28.072Z,98.10
2018-07-11T04:02:27.124Z,97.50
2018-07-11T04:04:56.868Z,97.60
2018-07-11T04:07:26.458Z,98.00
2018-07-11T04:09:56.037Z,98.10
2018-07-11T04:12:25.683Z,98.20
2018-07-11T04:14:55.360Z,98.40
2018-07-11T04:17:24.958Z,98.50
2018-07-11T04:19:54.797Z,98.70
2018-07-11T04:22:24.434Z,99.30
2018-07-11T04:27:23.408Z,98.30
2018-07-11T04:29:53.300Z,98.30
2018-07-11T04:32:22.951Z,98.10
2018-07-11T04:34:52.652Z,97.80
2018-07-11T04:37:22.282Z,97.50
2018-07-11T04:42:21.230Z,96.80
2018-07-11T04:44:51.782Z,97.10
2018-07-11T04:47:21.501Z,97.10
2018-07-11T04:49:51.216Z,96.50
2018-07-11T04:52:21.205Z,96.50
2018-07-11T04:54:50.953Z,96.50
2018-07-11T04:57:20.837Z,96.80
2018-07-11T04:59:51.552Z,96.70
2018-07-11T05:02:21.141Z,96.80
2018-07-11T05:04:50.841Z,96.90
2018-07-11T05:07:20.421Z,96.90
2018-07-11T05:09:50.629Z,96.90
2018-07-11T05:12:20.335Z,96.80
2018-07-11T05:14:51.462Z,97.10
2018-07-11T05:17:22.712Z,97.10
2018-07-11T05:19:52.480Z,97.60
2018-07-11T05:22:22.786Z,97.00
2018-07-11T05:24:52.433Z,97.30
2018-07-11T05:27:21.991Z,97.30
2018-07-11T05:32:22.096Z,97.40
2018-07-11T05:34:51.700Z,97.20
2018-07-11T05:37:21.304Z,96.90
2018-07-11T05:39:51.010Z,97.10
2018-07-11T05:42:20.707Z,96.70
2018-07-11T05:44:51.157Z,96.80
2018-07-11T05:47:20.962Z,96.70
2018-07-11T05:49:50.933Z,97.00
2018-07-11T05:52:20.544Z,97.50
2018-07-11T05:54:51.143Z,97.90
2018-07-11T05:57:29.023Z,98.10
2018-07-11T06:00:10.490Z,97.80
2018-07-11T06:02:51.591Z,98.30
2018-07-11T06:05:33.082Z,98.00
2018-07-11T06:08:14.125Z,97.90
2018-07-11T06:10:54.821Z,97.70
2018-07-11T06:13:24.755Z,97.70
2018-07-11T06:15:54.347Z,96.90
2018-07-11T06:18:25.963Z,96.90
2018-07-11T06:20:55.719Z,97.10
2018-07-11T06:23:25.423Z,96.70
2018-07-11T06:25:55.060Z,95.80
2018-07-11T06:28:24.680Z,96.30
2018-07-11T06:30:54.366Z,96.10
2018-07-11T06:33:23.996Z,96.20
2018-07-11T06:38:23.590Z,96.40
2018-07-11T06:40:53.514Z,96.50
2018-07-11T06:43:23.163Z,96.30
2018-07-11T06:45:53.655Z,95.70
2018-07-11T06:48:23.258Z,95.70
2018-07-11T06:50:53.987Z,96.10
2018-07-11T06:53:23.627Z,95.70
2018-07-11T06:55:54.122Z,96.10
2018-07-11T06:58:23.921Z,96.30
2018-07-11T07:00:54.509Z,96.10
2018-07-11T07:03:24.136Z,95.90
2018-07-11T07:05:54.791Z,95.40
2018-07-11T07:08:24.395Z,94.60
2018-07-11T07:13:23.883Z,94.20
2018-07-11T07:15:54.240Z,93.70
2018-07-11T07:18:23.929Z,93.30
2018-07-11T07:20:54.628Z,93.30
2018-07-11T07:23:24.189Z,93.10
2018-07-11T07:25:54.447Z,93.40
2018-07-11T07:28:24.123Z,92.70
2018-07-11T07:30:54.498Z,93.00
2018-07-11T07:33:24.174Z,93.20
2018-07-11T07:35:54.535Z,93.40
2018-07-11T07:38:24.231Z,92.90
2018-07-11T07:40:54.590Z,93.10
2018-07-11T07:43:25.544Z,92.90
2018-07-11T07:45:57.248Z,93.70
2018-07-11T07:48:27.343Z,93.20
2018-07-11T07:50:57.399Z,93.20
2018-07-11T07:53:27.069Z,93.30
2018-07-11T07:55:58.122Z,92.90
2018-07-11T07:58:27.795Z,91.60
2018-07-11T08:03:34.324Z,90.10
2018-07-11T08:06:06.364Z,90.50
2018-07-11T08:08:36.200Z,91.00
2018-07-11T08:11:05.893Z,90.70
2018-07-11T08:13:35.558Z,90.70
2018-07-11T08:16:05.246Z,90.80
2018-07-11T08:18:35.306Z,90.80
2018-07-11T08:21:05.138Z,90.30
2018-07-11T08:23:51.675Z,89.40
2018-07-11T08:26:38.151Z,88.10
2018-07-11T08:29:25.783Z,89.20
2018-07-11T08:34:20.090Z,88.20
2018-07-11T08:38:08.243Z,85.00
2018-07-11T08:40:59.923Z,85.70
2018-07-11T08:44:50.701Z,86.80
2018-07-11T08:49:40.809Z,86.90
2018-07-11T08:54:31.534Z,87.10
2018-07-11T08:57:17.997Z,85.90
2018-07-11T09:02:05.527Z,87.80
2018-07-11T10:41:46.943Z,88.70
2018-07-11T12:59:19.331Z,70.70
2018-07-11T13:01:54.945Z,57.80
2018-07-11T13:04:26.450Z,57.90
2018-07-11T13:06:56.194Z,57.60
2018-07-11T15:52:25.772Z,56.80
2018-07-11T15:54:59.734Z,53.30
2018-07-11T15:57:42.708Z,53.80
2018-07-11T16:00:16.905Z,54.70
2018-07-11T16:02:48.101Z,54.90
2018-07-11T23:29:57.477Z,55.00
2018-07-11T23:32:25.274Z,92.10
2018-07-11T23:34:53.102Z,92.90
2018-07-11T23:37:20.928Z,93.20
2018-07-11T23:39:48.841Z,93.10
2018-07-11T23:42:16.691Z,93.30
2018-07-11T23:44:44.512Z,93.30
2018-07-11T23:47:12.309Z,93.60
2018-07-11T23:49:40.131Z,93.30
2018-07-11T23:52:07.932Z,93.60
2018-07-11T23:54:35.744Z,93.90
2018-07-11T23:57:03.560Z,94.20
2018-07-11T23:59:31.406Z,94.20
